Time;durP1;ratioP1;P1;durP2;ratioP2;P2;SDS_P1;SDS_P2;PMS_P1;PMS_P2;Temp;Humidity;BMP_temperature;BMP_pressure;BME280_temperature;BME280_humidity;BME280_pressure;Samples;Min_cycle;Max_cycle;Signal;HPM_P1;HPM_P2
2022/07/28 00:01:42;;;;;;;17.38;14.25;;;;;;;24.72;100.00;100104.50;4972809;28;20039;-87
2022/07/28 00:04:16;;;;;;;21.70;14.05;;;;;;;24.84;99.58;100114.06;4954377;28;20042;-83
2022/07/28 00:06:45;;;;;;;18.10;13.85;;;;;;;24.84;98.09;100116.78;4952262;28;20081;-84
2022/07/28 00:09:13;;;;;;;21.30;13.02;;;;;;;24.76;99.77;100117.25;4986125;28;20027;-83
2022/07/28 00:11:41;;;;;;;17.35;11.43;;;;;;;24.89;96.83;100124.91;4985208;28;20099;-84
2022/07/28 00:14:07;;;;;;;20.10;12.00;;;;;;;24.72;97.96;100124.28;4968692;28;20039;-83
2022/07/28 00:16:34;;;;;;;19.50;11.55;;;;;;;24.54;99.38;100124.72;4984005;28;20102;-82
2022/07/28 00:19:03;;;;;;;15.43;10.82;;;;;;;24.48;99.66;100125.78;4982777;28;20035;-82
2022/07/28 00:21:28;;;;;;;15.60;11.60;;;;;;;24.50;99.72;100126.31;4967024;28;20046;-82
2022/07/28 00:23:54;;;;;;;14.88;11.18;;;;;;;24.36;100.00;100123.25;4986754;28;20145;-83
2022/07/28 00:26:20;;;;;;;22.02;10.85;;;;;;;24.37;100.00;100118.66;4968646;28;20035;-83
2022/07/28 00:28:47;;;;;;;15.07;11.05;;;;;;;24.38;100.00;100125.72;4952115;28;20043;-83
2022/07/28 00:31:12;;;;;;;16.00;10.35;;;;;;;24.30;100.00;100129.72;4985376;28;20035;-84
2022/07/28 00:33:38;;;;;;;15.52;11.73;;;;;;;24.25;100.00;100120.78;4952068;28;20114;-82
2022/07/28 00:36:08;;;;;;;15.20;11.68;;;;;;;24.18;100.00;100127.25;4951636;28;20073;-84
2022/07/28 00:38:35;;;;;;;16.90;11.70;;;;;;;24.16;100.00;100118.53;4968843;28;20039;-83
2022/07/28 00:41:13;;;;;;;13.80;11.27;;;;;;;24.13;100.00;100119.06;4952670;28;20071;-83
2022/07/28 00:43:46;;;;;;;16.45;12.23;;;;;;;23.99;100.00;100123.28;4985294;28;20049;-83
2022/07/28 00:46:19;;;;;;;19.27;12.27;;;;;;;24.07;100.00;100130.91;4969429;28;20108;-83
2022/07/28 00:48:49;;;;;;;21.02;12.57;;;;;;;23.97;100.00;100141.66;4953198;28;20039;-82
2022/07/28 00:51:24;;;;;;;15.75;11.50;;;;;;;24.00;100.00;100134.91;4967297;28;20487;-79
2022/07/28 00:53:51;;;;;;;17.33;12.50;;;;;;;23.99;100.00;100123.28;4983845;28;20039;-84
2022/07/28 00:56:18;;;;;;;22.13;13.25;;;;;;;23.92;100.00;100125.41;4984454;28;20046;-82
2022/07/28 00:58:46;;;;;;;17.70;12.70;;;;;;;23.88;100.00;100132.38;4966997;28;20059;-83
2022/07/28 01:01:14;;;;;;;17.38;12.23;;;;;;;24.04;100.00;100136.84;4969387;28;20046;-81
2022/07/28 01:03:43;;;;;;;19.95;12.40;;;;;;;23.81;100.00;100131.78;4987218;28;20049;-83
2022/07/28 01:06:20;;;;;;;18.90;12.05;;;;;;;23.88;100.00;100137.81;4955480;28;20031;-83
2022/07/28 01:09:22;;;;;;;25.27;14.25;;;;;;;23.73;100.00;100134.94;4986823;28;20039;-83
2022/07/28 01:12:03;;;;;;;18.00;13.10;;;;;;;24.04;100.00;100141.44;4988149;28;20091;-84
2022/07/28 01:14:51;;;;;;;19.02;13.57;;;;;;;23.61;100.00;100131.59;4972752;28;20035;-83
2022/07/28 01:17:45;;;;;;;20.02;14.15;;;;;;;23.57;100.00;100135.88;4988575;28;20081;-81
2022/07/28 01:20:49;;;;;;;17.95;13.05;;;;;;;23.65;100.00;100130.84;4989441;28;20065;-82
2022/07/28 01:23:55;;;;;;;19.30;12.13;;;;;;;23.58;100.00;100126.72;4968001;28;20114;-81
2022/07/28 01:26:42;;;;;;;17.33;13.02;;;;;;;23.56;100.00;100129.69;4985709;28;20039;-83
2022/07/28 01:29:26;;;;;;;21.38;13.57;;;;;;;23.49;100.00;100125.56;4986313;28;20039;-83
2022/07/28 01:32:07;;;;;;;19.13;14.40;;;;;;;23.23;100.00;100134.44;4987042;28;20038;-84
2022/07/28 01:34:49;;;;;;;17.55;13.38;;;;;;;23.24;100.00;100130.66;4961889;28;20054;-83
2022/07/28 01:37:32;;;;;;;23.08;15.52;;;;;;;23.10;100.00;100133.75;4990965;28;20113;-87
2022/07/28 01:40:09;;;;;;;24.35;14.23;;;;;;;23.29;100.00;100134.25;4974052;28;20038;-82
2022/07/28 01:42:54;;;;;;;23.50;15.05;;;;;;;23.12;100.00;100134.34;4990317;28;20038;-85
2022/07/28 01:45:24;;;;;;;23.42;14.65;;;;;;;23.10;100.00;100136.47;4988687;28;20045;-84
2022/07/28 01:47:58;;;;;;;18.27;14.55;;;;;;;23.15;100.00;100136.53;4976251;28;20047;-85
2022/07/28 01:50:28;;;;;;;19.92;14.65;;;;;;;23.18;100.00;100135.19;4991126;28;20560;-85
2022/07/28 01:52:56;;;;;;;20.95;15.23;;;;;;;23.01;100.00;100137.97;4972012;28;20041;-82
2022/07/28 01:55:31;;;;;;;23.02;15.40;;;;;;;23.00;100.00;100136.34;4980668;28;20043;-83
2022/07/28 01:58:01;;;;;;;18.80;14.95;;;;;;;23.08;100.00;100132.38;4990083;28;20030;-84
2022/07/28 02:00:41;;;;;;;20.42;15.50;;;;;;;22.94;100.00;100131.13;4990867;28;20113;-84
2022/07/28 02:03:09;;;;;;;24.38;16.13;;;;;;;22.92;100.00;100131.41;4972921;28;20043;-84
2022/07/28 02:05:43;;;;;;;;;;;;;;;22.84;100.00;100122.91;4968079;28;20047;-84
2022/07/28 02:08:12;;;;;;;26.50;16.85;;;;;;;22.83;100.00;100119.41;4988276;28;19940;-84
2022/07/28 02:10:41;;;;;;;25.30;16.52;;;;;;;22.82;100.00;100114.25;4971251;28;20038;-84
2022/07/28 02:13:14;;;;;;;22.23;16.80;;;;;;;22.77;100.00;100112.28;4988489;28;20039;-85
2022/07/28 02:15:41;;;;;;;21.77;16.52;;;;;;;22.70;100.00;100108.97;4953577;28;20050;-84
2022/07/28 02:18:11;;;;;;;23.27;16.58;;;;;;;22.74;100.00;100110.09;4955282;28;20045;-83
2022/07/28 02:20:40;;;;;;;24.00;17.98;;;;;;;22.74;100.00;100120.88;4959484;28;20058;-82
2022/07/28 02:23:07;;;;;;;25.95;16.77;;;;;;;22.78;100.00;100119.31;4988861;28;20035;-81
2022/07/28 02:25:41;;;;;;;26.33;16.33;;;;;;;22.94;100.00;100126.53;4988360;28;20106;-81
2022/07/28 02:28:11;;;;;;;23.00;16.83;;;;;;;22.69;100.00;100134.34;4988512;28;20054;-84
2022/07/28 02:30:45;;;;;;;22.83;16.30;;;;;;;22.67;100.00;100137.28;4989452;28;20054;-83
2022/07/28 02:33:22;;;;;;;22.50;16.02;;;;;;;22.73;100.00;100132.78;4972720;28;20039;-85
2022/07/28 02:35:57;;;;;;;22.45;16.80;;;;;;;22.70;100.00;100125.19;4989804;28;20502;-85
2022/07/28 02:38:29;;;;;;;24.58;16.48;;;;;;;22.71;100.00;100124.09;4989966;28;20038;-84
2022/07/28 02:41:37;;;;;;;24.40;16.35;;;;;;;22.64;100.00;100123.44;4971878;28;20053;-84
2022/07/28 02:44:17;;;;;;;24.70;16.48;;;;;;;22.58;100.00;100133.38;4989043;28;20109;-83
2022/07/28 02:46:53;;;;;;;25.40;16.23;;;;;;;22.71;100.00;100126.81;4973284;28;20062;-84
2022/07/28 02:49:29;;;;;;;23.73;16.55;;;;;;;22.65;100.00;100133.19;4973941;28;20051;-85
2022/07/28 02:52:03;;;;;;;24.63;16.45;;;;;;;22.65;100.00;100125.06;4984805;28;20039;-84
2022/07/28 02:54:36;;;;;;;19.58;15.13;;;;;;;22.68;100.00;100127.31;4960037;28;20039;-84
2022/07/28 02:57:03;;;;;;;21.52;15.07;;;;;;;22.67;100.00;100125.66;4971894;28;20039;-82
2022/07/28 02:59:36;;;;;;;22.33;15.48;;;;;;;22.68;100.00;100130.00;4973461;28;20031;-84
2022/07/28 03:02:07;;;;;;;24.33;16.40;;;;;;;22.59;100.00;100131.47;4988899;28;20127;-86
2022/07/28 03:07:22;;;;;;;25.17;16.33;;;;;;;22.67;100.00;100122.97;4971160;28;20034;-83
2022/07/28 03:09:52;;;;;;;23.13;15.38;;;;;;;22.57;100.00;100134.41;4989169;28;20110;-85
2022/07/28 03:12:17;;;;;;;27.80;17.17;;;;;;;22.50;100.00;100136.50;4971085;28;20054;-85
2022/07/28 03:15:01;;;;;;;23.02;16.77;;;;;;;22.45;100.00;100144.53;4988596;28;20039;-85
2022/07/28 03:17:29;;;;;;;25.92;16.42;;;;;;;22.60;100.00;100141.22;4971543;28;20066;-86
2022/07/28 03:20:00;;;;;;;24.45;18.38;;;;;;;22.60;100.00;100142.03;4971471;28;20439;-86
2022/07/28 03:22:35;;;;;;;24.52;17.95;;;;;;;22.47;100.00;100142.38;4988720;28;20114;-86
2022/07/28 03:25:09;;;;;;;31.92;18.90;;;;;;;22.47;100.00;100152.41;4955719;28;20102;-84
2022/07/28 03:27:42;;;;;;;29.73;18.27;;;;;;;22.58;100.00;100154.16;4971581;28;20029;-85
2022/07/28 03:30:17;;;;;;;27.67;18.67;;;;;;;22.55;100.00;100150.06;4987700;28;20058;-83
2022/07/28 03:32:59;;;;;;;33.28;18.67;;;;;;;22.40;100.00;100151.75;4969493;28;20049;-85
2022/07/28 03:35:31;;;;;;;25.77;19.00;;;;;;;22.36;100.00;100156.00;4988857;28;20034;-82
2022/07/28 03:38:24;;;;;;;30.63;19.77;;;;;;;22.27;100.00;100149.41;4970652;28;20070;-85
2022/07/28 03:40:58;;;;;;;30.20;20.73;;;;;;;22.24;100.00;100152.59;4973051;28;20066;-83
2022/07/28 03:43:43;;;;;;;28.52;20.35;;;;;;;22.26;100.00;100156.66;4988370;28;20679;-86
2022/07/28 03:46:09;;;;;;;31.42;21.13;;;;;;;22.29;100.00;100152.66;4985355;28;20106;-83
2022/07/28 03:48:47;;;;;;;28.55;20.25;;;;;;;22.32;100.00;100166.47;4955099;28;20070;-84
2022/07/28 03:51:16;;;;;;;33.47;20.27;;;;;;;22.28;100.00;100159.09;4988379;28;20503;-81
2022/07/28 03:53:50;;;;;;;35.00;19.92;;;;;;;22.31;100.00;100159.44;4983800;28;20054;-85
2022/07/28 03:56:25;;;;;;;32.33;20.35;;;;;;;22.22;100.00;100152.00;4970832;28;20045;-85
2022/07/28 03:58:53;;;;;;;33.33;20.33;;;;;;;22.14;100.00;100154.06;4987813;28;20031;-86
2022/07/28 04:01:31;;;;;;;28.67;20.70;;;;;;;22.16;100.00;100161.91;4969539;28;20023;-84
2022/07/28 04:04:05;;;;;;;30.02;20.75;;;;;;;22.09;100.00;100164.78;4988260;28;20069;-85
2022/07/28 04:06:39;;;;;;;29.70;20.02;;;;;;;22.16;100.00;100172.72;4991210;28;20034;-82
2022/07/28 04:09:20;;;;;;;27.38;19.88;;;;;;;22.09;100.00;100172.88;4992793;28;20057;-82
2022/07/28 04:11:45;;;;;;;33.13;20.70;;;;;;;22.13;100.00;100174.03;4971983;28;20046;-81
2022/07/28 04:14:23;;;;;;;27.42;20.63;;;;;;;22.21;100.00;100180.06;4988374;28;20035;-83
2022/07/28 04:17:14;;;;;;;31.90;20.17;;;;;;;22.44;100.00;100183.38;4985845;28;20027;-82
2022/07/28 04:19:45;;;;;;;28.95;20.30;;;;;;;22.31;100.00;100180.22;4985871;28;20563;-83
2022/07/28 04:22:20;;;;;;;26.08;19.25;;;;;;;22.29;100.00;100187.75;4950083;28;20109;-83
2022/07/28 04:24:55;;;;;;;26.38;18.85;;;;;;;22.26;100.00;100177.44;4992103;28;20038;-84
2022/07/28 04:27:33;;;;;;;29.63;19.42;;;;;;;22.24;100.00;100182.28;4993995;28;20054;-86
2022/07/28 04:30:02;;;;;;;30.02;19.48;;;;;;;22.23;100.00;100183.34;5099365;23;20070;-83
2022/07/28 04:32:51;;;;;;;37.13;20.15;;;;;;;22.22;100.00;100187.91;4996395;28;20043;-83
2022/07/28 04:35:42;;;;;;;30.17;20.15;;;;;;;22.31;100.00;100185.63;4996717;28;20058;-84
2022/07/28 04:38:44;;;;;;;30.95;20.85;;;;;;;22.59;100.00;100172.81;4978029;28;20039;-84
2022/07/28 04:41:28;;;;;;;30.95;18.85;;;;;;;22.79;100.00;100187.69;4947881;28;20046;-83
2022/07/28 04:44:41;;;;;;;25.60;19.33;;;;;;;22.61;100.00;100186.88;4963842;28;20046;-83
2022/07/28 04:47:38;;;;;;;28.10;19.05;;;;;;;22.61;100.00;100189.59;4997190;28;20118;-83
2022/07/28 04:50:36;;;;;;;29.45;17.75;;;;;;;22.53;100.00;100181.94;4996606;28;20066;-83
2022/07/28 04:53:32;;;;;;;27.77;19.00;;;;;;;22.60;100.00;100189.84;4964651;28;20066;-81
2022/07/28 05:02:51;;;;;;;29.33;19.58;;;;;;;22.84;100.00;100196.69;4985821;28;20121;-83
2022/07/28 05:05:28;;;;;;;30.27;18.90;;;;;;;22.98;100.00;100189.84;4969548;28;20053;-84
2022/07/28 05:08:27;;;;;;;25.45;18.27;;;;;;;23.39;100.00;100198.44;4982623;28;20034;-85
2022/07/28 05:11:02;;;;;;;25.75;17.58;;;;;;;23.34;100.00;100190.25;4967646;28;20046;-83
2022/07/28 05:13:54;;;;;;;30.17;18.85;;;;;;;23.07;100.00;100190.22;4979834;28;20053;-84
2022/07/28 05:20:21;;;;;;;25.77;17.60;;;;;;;23.20;100.00;100189.03;5000432;28;20054;-85
2022/07/28 05:22:52;;;;;;;25.45;16.83;;;;;;;23.23;100.00;100193.94;4995856;28;20069;-84
2022/07/28 05:25:44;;;;;;;29.42;16.67;;;;;;;23.34;100.00;100198.38;4982712;28;20145;-83
2022/07/28 05:28:16;;;;;;;26.67;16.10;;;;;;;23.42;100.00;100193.38;4988211;28;20057;-85
2022/07/28 05:31:09;;;;;;;25.37;15.67;;;;;;;23.49;100.00;100199.41;4983872;28;20030;-84
2022/07/28 05:33:44;;;;;;;29.67;16.52;;;;;;;23.54;100.00;100206.75;4948179;29;20078;-83
2022/07/28 05:37:10;;;;;;;26.42;15.50;;;;;;;23.69;100.00;100204.22;4981021;29;20046;-83
2022/07/28 05:39:54;;;;;;;24.92;15.90;;;;;;;23.92;100.00;100209.31;4974148;28;20055;-84
2022/07/28 05:42:39;;;;;;;23.35;13.93;;;;;;;23.97;100.00;100209.34;4981307;29;20039;-84
2022/07/28 05:45:20;;;;;;;28.92;14.10;;;;;;;24.18;100.00;100221.19;4949147;28;20048;-87
2022/07/28 05:54:05;;;;;;;23.33;12.00;;;;;;;24.85;99.70;100224.13;5397724;23;20066;-84
2022/07/28 05:59:34;;;;;;;16.90;10.73;;;;;;;24.94;99.07;100233.41;3065923;26;20098;-85
2022/07/28 06:07:47;;;;;;;22.63;10.98;;;;;;;25.50;95.76;100225.50;2291206;23;20047;-87
2022/07/28 06:16:44;;;;;;;13.70;9.77;;;;;;;25.93;92.30;100238.63;4960383;28;20035;-83
2022/07/28 06:19:17;;;;;;;18.58;10.55;;;;;;;26.59;88.14;100235.94;4958161;28;20076;-86
2022/07/28 06:32:39;;;;;;;17.30;11.25;;;;;;;27.68;80.01;100256.81;5174119;23;20043;-86
2022/07/28 06:37:53;;;;;;;19.85;11.52;;;;;;;27.09;83.89;100249.44;5352561;23;20125;-87
2022/07/28 06:40:30;;;;;;;17.38;11.60;;;;;;;27.46;80.78;100250.97;4992201;28;20073;-84
2022/07/28 06:43:19;;;;;;;15.40;11.25;;;;;;;28.65;74.70;100246.84;5126434;23;20333;-85
2022/07/28 06:46:41;;;;;;;18.92;10.57;;;;;;;28.19;75.50;100251.88;4995387;28;20049;-84
2022/07/28 06:49:07;;;;;;;17.45;11.00;;;;;;;28.67;70.98;100250.13;4996354;28;20070;-83
2022/07/28 06:51:41;;;;;;;24.27;10.30;;;;;;;27.66;74.46;100253.59;4992815;28;20043;-80
2022/07/28 06:54:19;;;;;;;15.57;10.98;;;;;;;27.41;77.60;100256.41;4995116;28;20035;-83
2022/07/28 06:57:10;;;;;;;22.98;9.38;;;;;;;27.73;75.40;100248.63;5000379;28;20015;-84
2022/07/28 07:03:33;;;;;;;20.40;9.15;;;;;;;27.83;74.08;100256.75;4988929;28;20043;-87
2022/07/28 07:16:46;;;;;;;11.32;7.32;;;;;;;29.36;64.54;100260.56;5004801;26;20054;-87
2022/07/28 07:19:18;;;;;;;13.35;7.45;;;;;;;29.40;63.54;100271.72;5018985;23;20050;-88
2022/07/28 07:24:44;;;;;;;14.63;7.15;;;;;;;29.45;62.58;100268.91;5554763;23;20104;-81
2022/07/28 07:27:15;;;;;;;13.25;7.10;;;;;;;29.35;63.41;100269.03;5006061;23;20045;-86
2022/07/28 07:29:40;;;;;;;13.02;7.43;;;;;;;29.57;62.37;100272.03;4981577;28;20122;-89
2022/07/28 07:32:06;;;;;;;16.77;7.68;;;;;;;29.40;63.58;100266.25;4962423;28;20039;-87
2022/07/28 07:34:31;;;;;;;20.08;8.48;;;;;;;29.49;62.62;100272.69;4977797;28;20052;-84
2022/07/28 07:37:00;;;;;;;13.27;6.40;;;;;;;29.36;63.17;100260.56;4963334;28;20030;-85
2022/07/28 07:39:26;;;;;;;7.70;5.65;;;;;;;29.78;61.24;100265.19;4954024;28;20049;-88
2022/07/28 07:41:51;;;;;;;14.73;5.95;;;;;;;29.84;60.55;100272.22;4952512;28;20038;-85
2022/07/28 07:44:17;;;;;;;14.00;6.03;;;;;;;29.68;61.15;100276.25;4976005;28;20062;-86
2022/07/28 07:46:42;;;;;;;8.40;6.05;;;;;;;29.55;62.05;100274.25;4962793;28;20035;-90
2022/07/28 07:49:08;;;;;;;15.48;6.35;;;;;;;29.97;60.81;100276.94;4967280;28;20034;-90
2022/07/28 07:51:34;;;;;;;10.88;6.38;;;;;;;30.00;60.91;100279.09;4952533;28;20053;-90
2022/07/28 07:53:59;;;;;;;11.35;5.88;;;;;;;30.39;59.45;100283.41;4975820;28;20027;-87
2022/07/28 07:56:25;;;;;;;13.98;6.80;;;;;;;29.76;62.27;100281.84;4974671;28;20089;-89
2022/07/28 07:58:52;;;;;;;8.77;6.10;;;;;;;29.83;62.29;100276.06;4975752;28;20501;-89
2022/07/28 08:01:17;;;;;;;10.57;7.35;;;;;;;29.60;63.88;100276.91;4975313;28;20043;-88
2022/07/28 08:03:43;;;;;;;10.57;6.68;;;;;;;29.92;63.75;100271.56;4941539;28;20031;-90
2022/07/28 08:06:09;;;;;;;13.45;7.60;;;;;;;30.45;60.67;100274.03;4957039;28;20046;-88
2022/07/28 08:08:35;;;;;;;10.55;7.55;;;;;;;30.65;60.15;100270.97;4973933;28;20031;-87
2022/07/28 08:11:00;;;;;;;15.07;7.97;;;;;;;30.24;61.58;100268.88;4975131;28;20106;-87
2022/07/28 08:13:26;;;;;;;12.57;8.48;;;;;;;30.38;60.80;100271.66;4976784;28;20035;-88
2022/07/28 08:15:51;;;;;;;13.48;8.00;;;;;;;30.24;62.40;100266.16;4982722;28;20057;-89
2022/07/28 08:18:17;;;;;;;15.50;9.02;;;;;;;29.99;63.11;100274.75;4967325;28;20511;-88
2022/07/28 08:20:42;;;;;;;12.45;8.32;;;;;;;30.02;62.28;100271.44;4984285;28;20044;-87
2022/07/28 08:23:08;;;;;;;15.48;7.95;;;;;;;30.44;61.56;100277.88;4980475;28;20485;-90
2022/07/28 08:25:36;;;;;;;15.43;9.40;;;;;;;30.47;60.58;100280.84;4980298;28;20054;-88
2022/07/28 08:28:02;;;;;;;12.60;8.73;;;;;;;30.12;63.35;100268.53;4989593;28;20079;-87
2022/07/28 08:30:30;;;;;;;17.08;8.57;;;;;;;31.13;59.23;100277.72;4997678;28;20051;-88
2022/07/28 08:32:59;;;;;;;11.10;9.02;;;;;;;31.18;59.18;100280.38;5005373;28;20078;-90
2022/07/28 08:35:25;;;;;;;20.63;11.02;;;;;;;31.23;58.34;100277.53;5001793;28;20117;-88
2022/07/28 08:37:50;;;;;;;15.32;9.57;;;;;;;31.10;59.83;100270.13;4981267;28;20527;-86
2022/07/28 08:40:16;;;;;;;16.55;8.73;;;;;;;31.62;57.84;100277.00;4987047;28;20019;-90
2022/07/28 08:42:47;;;;;;;16.17;7.40;;;;;;;31.75;57.60;100278.13;4966053;28;20110;-88
2022/07/28 08:45:14;;;;;;;20.95;8.00;;;;;;;31.45;58.07;100267.78;4982301;28;20049;-87
2022/07/28 08:47:42;;;;;;;18.05;8.57;;;;;;;30.86;59.87;100283.13;4965959;28;20108;-88
2022/07/28 08:50:13;;;;;;;16.23;9.50;;;;;;;30.90;59.86;100288.81;4981443;28;20031;-90
2022/07/28 08:52:39;;;;;;;13.13;9.35;;;;;;;30.69;60.10;100288.41;4967182;28;20031;-89
2022/07/28 08:55:07;;;;;;;13.90;8.60;;;;;;;30.62;61.07;100288.78;4980030;28;20113;-87
2022/07/28 08:57:35;;;;;;;13.90;9.50;;;;;;;30.23;62.05;100285.56;4983159;28;20049;-90
2022/07/28 09:00:01;;;;;;;14.45;8.75;;;;;;;30.57;60.91;100279.84;4947530;28;20066;-86
2022/07/28 09:02:28;;;;;;;12.95;8.77;;;;;;;30.81;60.54;100285.16;4965636;28;20092;-87
2022/07/28 09:04:55;;;;;;;11.25;8.77;;;;;;;31.03;59.39;100288.88;4964929;28;20066;-86
2022/07/28 09:07:22;;;;;;;14.07;8.27;;;;;;;31.37;58.41;100287.66;4983262;28;20070;-87
2022/07/28 09:09:49;;;;;;;16.75;7.20;;;;;;;31.37;58.97;100287.66;4982550;28;20067;-86
2022/07/28 09:12:41;;;;;;;13.32;8.75;;;;;;;31.45;56.53;100292.44;4994869;28;20057;-91
2022/07/28 09:15:25;;;;;;;15.77;7.70;;;;;;;31.45;57.24;100290.50;4988561;28;20031;-88
2022/07/28 09:17:50;;;;;;;10.68;7.80;;;;;;;31.86;55.85;100298.66;4992029;28;20109;-90
2022/07/28 09:20:17;;;;;;;16.65;8.88;;;;;;;31.63;56.52;100297.00;4972466;28;20165;-91
2022/07/28 09:23:05;;;;;;;12.68;10.15;;;;;;;31.29;56.71;100294.66;4970149;28;20089;-91
2022/07/28 09:25:32;;;;;;;17.95;7.75;;;;;;;31.83;55.96;100291.06;4983450;28;20030;-90
2022/07/28 09:28:06;;;;;;;15.45;7.40;;;;;;;31.78;57.22;100282.97;4980744;28;20027;-89
2022/07/28 09:30:34;;;;;;;16.42;6.80;;;;;;;32.33;55.12;100282.78;4965185;28;20089;-89
2022/07/28 09:33:20;;;;;;;16.08;7.70;;;;;;;32.52;53.80;100291.63;4975034;28;20526;-91
2022/07/28 09:35:51;;;;;;;13.10;8.45;;;;;;;31.98;54.50;100281.69;4987673;28;20042;-89
2022/07/28 09:38:18;;;;;;;14.82;7.25;;;;;;;32.10;54.78;100296.50;4987825;28;20023;-87
2022/07/28 09:41:07;;;;;;;12.93;7.95;;;;;;;32.11;53.29;100275.38;4961839;28;20053;-94
2022/07/28 09:43:39;;;;;;;14.73;6.82;;;;;;;32.07;53.17;100288.09;4957160;28;20055;-89
2022/07/28 09:46:14;;;;;;;20.27;13.23;;;;;;;32.12;53.34;100293.44;4979670;28;20096;-90
2022/07/28 09:49:00;;;;;;;8.98;6.20;;;;;;;32.06;53.98;100275.50;4960517;28;20492;-89
2022/07/28 09:51:29;;;;;;;17.00;7.53;;;;;;;31.97;54.06;100286.38;4962047;28;20047;-89
2022/07/28 09:54:13;;;;;;;15.57;7.53;;;;;;;31.89;54.73;100276.13;4976484;28;20074;-91
2022/07/28 09:56:43;;;;;;;11.02;6.75;;;;;;;31.96;54.51;100271.03;4977542;28;20057;-93
2022/07/28 09:59:11;;;;;;;12.70;8.13;;;;;;;32.11;53.79;100267.97;4980072;28;20082;-87
2022/07/28 10:01:54;;;;;;;11.02;6.07;;;;;;;32.05;52.12;100263.72;4960804;28;20035;-89
2022/07/28 10:04:34;;;;;;;11.32;5.95;;;;;;;32.40;52.39;100262.03;4977314;28;20035;-86
2022/07/28 10:07:05;;;;;;;11.70;7.00;;;;;;;31.76;54.72;100260.53;4962586;28;20069;-85
2022/07/28 10:09:36;;;;;;;12.73;7.00;;;;;;;32.20;54.36;100262.53;4963701;28;20058;-90
2022/07/28 10:12:16;;;;;;;10.32;6.35;;;;;;;32.30;53.40;100251.31;4982948;28;20046;-90
2022/07/28 10:14:42;;;;;;;12.07;6.40;;;;;;;32.07;53.93;100264.22;4965247;28;20043;-91
2022/07/28 10:17:20;;;;;;;10.65;6.72;;;;;;;31.85;54.09;100255.97;4983904;28;20075;-91
2022/07/28 10:19:50;;;;;;;10.30;6.25;;;;;;;32.21;53.44;100258.69;4980706;28;20031;-91
2022/07/28 10:22:39;;;;;;;8.20;6.40;;;;;;;32.14;52.14;100250.09;4999229;28;20049;-93
2022/07/28 10:25:23;;;;;;;12.93;6.40;;;;;;;32.25;52.23;100246.75;4962641;28;20074;-93
2022/07/28 10:28:05;;;;;;;9.02;5.80;;;;;;;32.54;51.47;100257.28;4985064;28;20061;-91
2022/07/28 10:30:42;;;;;;;8.48;5.50;;;;;;;32.32;52.47;100249.06;4969194;28;20050;-91
2022/07/28 10:33:14;;;;;;;8.52;5.20;;;;;;;32.36;51.54;100255.56;4978120;28;20054;-93
2022/07/28 10:35:42;;;;;;;7.85;4.97;;;;;;;32.46;49.39;100259.97;4986799;28;20039;-90
2022/07/28 10:38:12;;;;;;;10.20;5.57;;;;;;;32.36;50.56;100252.00;4981106;28;20117;-91
2022/07/28 10:40:46;;;;;;;8.13;5.90;;;;;;;32.51;51.28;100240.66;4985119;28;20045;-89
2022/07/28 10:43:17;;;;;;;14.35;5.93;;;;;;;32.87;50.82;100246.81;4987274;28;20045;-90
2022/07/28 10:45:46;;;;;;;11.25;5.45;;;;;;;32.33;50.90;100241.66;4987294;28;20015;-90
2022/07/28 10:48:15;;;;;;;9.63;4.70;;;;;;;32.85;50.60;100240.81;4985722;28;20038;-90
2022/07/28 10:50:42;;;;;;;8.32;5.13;;;;;;;33.63;47.88;100239.97;4963841;28;20500;-90
2022/07/28 10:53:13;;;;;;;10.10;4.75;;;;;;;33.91;46.46;100236.91;4938336;28;20159;-91
2022/07/28 10:55:49;;;;;;;7.53;5.50;;;;;;;33.64;46.78;100238.81;4992928;28;20026;-86
2022/07/28 10:58:25;;;;;;;12.38;5.05;;;;;;;33.54;48.29;100247.34;4961718;28;20492;-91
2022/07/28 11:00:52;;;;;;;7.40;4.82;;;;;;;33.57;47.03;100235.75;4957132;28;20035;-89
2022/07/28 11:03:42;;;;;;;7.45;4.63;;;;;;;32.95;48.48;100229.56;4970312;28;20042;-90
2022/07/28 11:06:33;;;;;;;9.95;6.43;;;;;;;32.70;50.44;100233.03;4973783;28;20540;-90
2022/07/28 11:09:14;;;;;;;11.57;6.47;;;;;;;32.28;52.12;100219.84;4964625;28;20038;-93
2022/07/28 11:11:58;;;;;;;9.68;5.50;;;;;;;31.45;54.67;100229.44;4943381;28;20058;-91
2022/07/28 11:15:13;;;;;;;8.35;5.80;;;;;;;31.10;57.20;100218.09;4980929;28;20095;-92
2022/07/28 11:18:09;;;;;;;7.55;4.97;;;;;;;31.13;57.49;100222.97;4906276;29;20048;-93
2022/07/28 11:20:55;;;;;;;11.10;5.40;;;;;;;30.65;59.47;100221.72;4915584;29;20056;-92
2022/07/28 11:24:01;;;;;;;12.40;5.75;;;;;;;30.50;59.00;100209.13;4912626;29;20135;-92
2022/07/28 11:26:45;;;;;;;13.45;5.55;;;;;;;30.45;57.88;100211.94;4889155;29;20040;-92
2022/07/28 11:29:20;;;;;;;8.95;5.13;;;;;;;30.25;56.99;100198.59;4908595;29;20044;-92
2022/07/28 11:31:50;;;;;;;9.55;5.05;;;;;;;30.25;56.94;100202.16;4922059;29;20016;-89
2022/07/28 11:34:24;;;;;;;7.13;5.63;;;;;;;30.15;57.91;100196.84;4922021;29;20047;-92
2022/07/28 11:45:13;;;;;;;18.17;5.65;;;;;;;30.22;59.86;100219.16;5561036;23;19920;-92
2022/07/28 12:15:37;;;;;;;8.77;4.80;;;;;;;30.13;58.41;100203.72;5077428;23;20657;-91
2022/07/28 12:26:05;;;;;;;;;;;;;;;;;;;;;
2022/07/28 12:45:19;;;;;;;7.65;5.50;;;;;;;30.53;55.83;100218.63;5042982;23;20058;-88
2022/07/28 12:48:14;;;;;;;12.40;5.32;;;;;;;30.61;56.20;100207.00;4967232;28;20059;-87
2022/07/28 12:50:45;;;;;;;13.30;4.90;;;;;;;30.76;55.38;100215.72;4984607;28;20050;-85
2022/07/28 12:53:46;;;;;;;8.75;4.72;;;;;;;30.57;54.13;100216.94;4991349;28;20114;-88
2022/07/28 12:56:54;;;;;;;7.03;4.57;;;;;;;30.44;54.28;100220.44;4994265;28;20058;-90
2022/07/28 12:59:20;;;;;;;11.23;5.20;;;;;;;30.35;54.73;100216.75;4996325;28;20043;-82
2022/07/28 13:01:54;;;;;;;13.32;4.90;;;;;;;30.50;53.60;100216.50;4995923;28;20046;-87
2022/07/28 13:04:41;;;;;;;7.03;4.50;;;;;;;30.54;53.18;100221.09;4977209;28;20070;-87
2022/07/28 13:07:29;;;;;;;8.77;4.28;;;;;;;30.45;53.35;100217.44;4997805;28;20042;-85
2022/07/28 13:10:22;;;;;;;11.20;6.53;;;;;;;30.49;53.55;100225.84;4997147;28;20045;-80
2022/07/28 13:13:08;;;;;;;9.30;6.25;;;;;;;30.71;53.89;100225.97;4991863;28;20042;-82
2022/07/28 13:16:24;;;;;;;18.15;13.50;;;;;;;30.58;54.60;100224.84;4997128;28;20051;-87
2022/07/28 13:19:01;;;;;;;6.00;4.60;;;;;;;30.50;54.73;100220.06;4919594;29;20088;-84
2022/07/28 13:22:18;;;;;;;9.95;4.47;;;;;;;30.33;55.30;100222.50;4905360;29;20053;-83
2022/07/28 13:25:28;;;;;;;5.32;4.10;;;;;;;30.38;55.09;100205.22;4919790;29;20056;-87
2022/07/28 13:28:54;;;;;;;6.97;4.72;;;;;;;30.44;55.15;100193.91;4913681;29;20044;-88
2022/07/28 13:32:19;;;;;;;12.77;4.60;;;;;;;30.50;55.05;100191.88;4956886;29;20047;-86
2022/07/28 13:36:17;;;;;;;8.57;4.20;;;;;;;30.62;54.12;100194.97;4981100;29;20039;-87
2022/07/28 13:43:53;;;;;;;7.57;4.57;;;;;;;30.44;55.54;100190.34;5000833;28;20035;-89
2022/07/28 13:47:28;;;;;;;9.05;4.72;;;;;;;30.42;56.76;100184.41;5014896;28;20046;-91
2022/07/28 13:51:35;;;;;;;5.63;4.90;;;;;;;30.40;56.10;100178.38;4933874;29;20058;-91
2022/07/28 14:49:17;;;;;;;6.80;4.65;;;;;;;30.74;54.49;100121.38;4860520;26;20031;-87
2022/07/28 14:52:34;;;;;;;7.13;4.55;;;;;;;30.80;54.39;100122.91;4885756;29;20032;-88
2022/07/28 14:55:37;;;;;;;13.98;5.45;;;;;;;30.70;54.39;100120.38;4923462;29;20044;-87
2022/07/28 15:01:50;;;;;;;12.00;4.72;;;;;;;30.74;55.23;100113.19;5021630;23;20050;-85
2022/07/28 15:04:27;;;;;;;9.88;5.30;;;;;;;30.93;54.71;100119.31;4978850;28;20039;-85
2022/07/28 15:10:11;;;;;;;11.07;5.60;;;;;;;30.84;54.06;100136.78;3229501;26;20039;-85
2022/07/28 15:12:45;;;;;;;6.32;4.50;;;;;;;30.98;54.32;100137.63;4978415;28;20050;-85